Time;durP1;ratioP1;P1;durP2;ratioP2;P2;SDS_P1;SDS_P2;PMS_P1;PMS_P2;Temp;Humidity;BMP_temperature;BMP_pressure;BME280_temperature;BME280_humidity;BME280_pressure;Samples;Min_cycle;Max_cycle;Signal;HPM_P1;HPM_P2
2022/04/20 00:00:34;;;;;;;2.33;2.00;;;6.00;99.90;;;;;;5036596;28;20186;-76
2022/04/20 00:03:01;;;;;;;2.47;1.90;;;6.00;99.90;;;;;;5036450;28;20185;-76
2022/04/20 00:05:27;;;;;;;2.87;1.87;;;5.90;99.90;;;;;;5036301;28;20202;-76
2022/04/20 00:07:53;;;;;;;2.20;1.90;;;5.90;99.90;;;;;;5019960;28;20238;-76
2022/04/20 00:10:19;;;;;;;2.73;2.10;;;6.00;99.90;;;;;;5003643;28;20186;-76
2022/04/20 00:12:44;;;;;;;2.33;2.00;;;5.80;99.90;;;;;;5035854;28;20286;-76
2022/04/20 00:15:10;;;;;;;2.40;2.20;;;5.70;99.90;;;;;;5019892;28;20604;-76
2022/04/20 00:17:35;;;;;;;2.67;2.20;;;5.50;99.90;;;;;;5036311;28;20210;-76
2022/04/20 00:20:01;;;;;;;3.57;1.83;;;5.40;99.90;;;;;;5036461;28;20179;-76
2022/04/20 00:22:27;;;;;;;4.37;2.07;;;5.40;99.90;;;;;;5019718;28;20640;-76
2022/04/20 00:24:52;;;;;;;2.13;1.93;;;5.50;99.90;;;;;;5002731;28;20183;-76
2022/04/20 00:27:18;;;;;;;3.53;1.90;;;5.40;99.90;;;;;;5035777;28;20229;-76
2022/04/20 00:29:44;;;;;;;2.33;1.80;;;5.30;99.90;;;;;;5002956;28;20575;-76
2022/04/20 00:32:10;;;;;;;2.47;1.90;;;5.40;99.90;;;;;;5019045;28;20717;-76
2022/04/20 00:34:35;;;;;;;2.80;1.93;;;5.40;99.90;;;;;;5035982;28;20224;-76
2022/04/20 00:37:01;;;;;;;4.07;2.10;;;5.50;99.90;;;;;;5035676;28;20270;-76
2022/04/20 00:39:27;;;;;;;2.57;2.17;;;5.40;99.90;;;;;;5053298;28;20194;-76
2022/04/20 00:41:53;;;;;;;2.50;2.10;;;5.40;99.90;;;;;;5018936;28;20179;-76
2022/04/20 00:44:19;;;;;;;3.20;2.03;;;5.50;99.90;;;;;;5003217;28;20188;-76
2022/04/20 00:46:47;;;;;;;2.50;1.97;;;5.30;99.90;;;;;;5035433;28;20642;-76
2022/04/20 00:49:14;;;;;;;4.97;2.07;;;5.50;99.90;;;;;;5002801;28;20697;-76
2022/04/20 00:51:57;;;;;;;2.67;2.17;;;5.60;99.90;;;;;;5019122;28;20174;-76
2022/04/20 00:54:23;;;;;;;3.93;2.07;;;5.70;99.90;;;;;;5019446;28;20272;-76
2022/04/20 00:56:49;;;;;;;3.57;2.10;;;5.60;99.90;;;;;;5035475;28;20184;-76
2022/04/20 00:59:23;;;;;;;3.83;1.73;;;5.40;99.90;;;;;;5048640;23;20230;-77
2022/04/20 01:01:50;;;;;;;2.43;1.70;;;5.30;99.90;;;;;;5034559;28;20727;-77
2022/04/20 01:04:15;;;;;;;2.13;1.93;;;5.20;99.90;;;;;;5002881;28;20178;-76
2022/04/20 01:06:41;;;;;;;2.33;1.80;;;5.10;99.90;;;;;;5018867;28;20173;-76
2022/04/20 01:09:07;;;;;;;2.00;1.70;;;4.90;99.90;;;;;;5002555;28;20281;-77
2022/04/20 01:11:33;;;;;;;3.40;2.10;;;4.80;99.90;;;;;;5018738;28;20228;-76
2022/04/20 01:13:58;;;;;;;2.03;1.63;;;4.80;99.90;;;;;;5002257;28;20210;-77
2022/04/20 01:16:24;;;;;;;2.67;2.00;;;4.80;99.90;;;;;;5034978;28;20181;-76
2022/04/20 01:18:50;;;;;;;2.20;2.00;;;4.70;99.90;;;;;;5018682;28;20221;-76
2022/04/20 01:21:16;;;;;;;2.33;2.03;;;4.70;99.90;;;;;;5034926;28;20178;-76
2022/04/20 01:23:42;;;;;;;2.00;1.80;;;4.60;99.90;;;;;;5002217;28;20189;-77
2022/04/20 01:26:09;;;;;;;2.93;2.00;;;4.60;99.90;;;;;;5018815;28;20185;-76
2022/04/20 01:28:36;;;;;;;2.03;1.80;;;4.60;99.90;;;;;;5035113;28;20193;-76
2022/04/20 01:31:03;;;;;;;3.03;1.80;;;4.60;99.90;;;;;;5018510;28;20213;-76
2022/04/20 01:33:29;;;;;;;2.30;2.00;;;4.60;99.90;;;;;;5018447;28;20227;-76
2022/04/20 01:35:55;;;;;;;4.83;2.00;;;4.80;99.90;;;;;;5017656;28;20550;-77
2022/04/20 01:38:20;;;;;;;2.27;1.90;;;4.70;99.90;;;;;;5034571;28;20668;-76
2022/04/20 01:40:46;;;;;;;3.47;2.20;;;4.70;99.90;;;;;;5018388;28;20188;-76
2022/04/20 01:43:12;;;;;;;2.37;1.90;;;4.70;99.90;;;;;;5052638;28;20174;-77
2022/04/20 01:45:37;;;;;;;2.60;1.90;;;4.80;99.90;;;;;;5018097;28;20185;-76
2022/04/20 01:48:03;;;;;;;2.70;2.00;;;4.70;99.90;;;;;;5001670;28;20224;-76
2022/04/20 01:50:29;;;;;;;2.47;2.23;;;4.70;99.90;;;;;;5001995;28;20182;-76
2022/04/20 01:52:55;;;;;;;3.13;2.17;;;4.50;99.90;;;;;;5018003;28;20234;-76
2022/04/20 01:55:21;;;;;;;3.13;2.70;;;4.40;99.90;;;;;;5017997;28;20178;-76
2022/04/20 01:57:46;;;;;;;2.63;2.13;;;4.50;99.90;;;;;;5034272;28;20181;-76
2022/04/20 02:00:13;;;;;;;2.70;2.13;;;4.60;99.90;;;;;;5002120;28;20628;-76
2022/04/20 02:02:38;;;;;;;2.40;2.00;;;4.40;99.90;;;;;;5018261;28;20190;-76
2022/04/20 02:05:09;;;;;;;2.50;2.10;;;4.20;99.90;;;;;;5001698;28;20604;-76
2022/04/20 02:07:35;;;;;;;3.27;2.20;;;4.20;99.90;;;;;;5018591;28;20170;-77
2022/04/20 02:10:03;;;;;;;2.20;1.93;;;4.00;99.90;;;;;;5034483;28;20547;-76
2022/04/20 02:12:28;;;;;;;4.63;2.00;;;4.00;99.90;;;;;;5034371;28;20209;-76
2022/04/20 02:14:54;;;;;;;3.03;2.00;;;4.00;99.90;;;;;;5018239;28;20582;-76
2022/04/20 02:17:20;;;;;;;2.80;1.90;;;4.10;99.90;;;;;;5001567;28;20181;-76
2022/04/20 02:19:45;;;;;;;2.63;2.00;;;3.90;99.90;;;;;;5001672;28;20346;-77
2022/04/20 02:22:11;;;;;;;2.43;2.23;;;4.00;99.90;;;;;;5017845;28;20189;-76
2022/04/20 02:24:37;;;;;;;2.90;2.30;;;4.00;99.90;;;;;;5001837;28;20279;-77
2022/04/20 02:27:03;;;;;;;2.63;2.20;;;4.10;99.90;;;;;;5017987;28;20189;-76
2022/04/20 02:29:28;;;;;;;3.87;1.93;;;4.00;99.90;;;;;;5018001;28;20208;-76
2022/04/20 02:31:54;;;;;;;2.93;2.17;;;4.00;99.90;;;;;;5017898;28;20839;-77
2022/04/20 02:34:19;;;;;;;2.53;2.10;;;4.10;99.90;;;;;;5001410;28;20651;-76
2022/04/20 02:36:45;;;;;;;5.23;2.17;;;4.00;99.90;;;;;;5017798;28;20582;-77
2022/04/20 02:39:11;;;;;;;2.00;1.90;;;3.80;99.90;;;;;;5001389;28;20197;-76
2022/04/20 02:41:39;;;;;;;2.47;2.00;;;3.70;99.90;;;;;;5001318;28;20577;-76
2022/04/20 02:47:41;;;;;;;2.10;1.90;;;3.50;99.90;;;;;;5054090;28;20690;-76
2022/04/20 02:50:07;;;;;;;2.73;2.20;;;3.60;99.90;;;;;;5037857;28;20694;-76
2022/04/20 02:52:33;;;;;;;2.23;2.00;;;3.70;99.90;;;;;;5037472;28;20677;-76
2022/04/20 02:54:58;;;;;;;2.80;2.00;;;3.90;99.90;;;;;;5005145;28;20185;-76
2022/04/20 02:57:24;;;;;;;2.50;2.20;;;4.10;99.90;;;;;;5004739;28;20279;-76
2022/04/20 02:59:50;;;;;;;2.43;1.90;;;4.10;99.90;;;;;;5037725;28;20224;-76
2022/04/20 03:02:16;;;;;;;3.70;2.17;;;3.80;99.90;;;;;;5020958;28;20205;-77
2022/04/20 03:04:42;;;;;;;2.53;1.80;;;3.50;99.90;;;;;;5005051;28;20215;-76
2022/04/20 03:07:07;;;;;;;2.40;2.10;;;3.40;99.90;;;;;;5020911;28;20204;-76
2022/04/20 03:09:33;;;;;;;2.10;1.90;;;3.30;99.90;;;;;;5020709;28;20542;-76
2022/04/20 03:11:58;;;;;;;3.50;2.03;;;3.20;99.90;;;;;;5004720;28;20208;-77
2022/04/20 03:14:24;;;;;;;3.67;2.10;;;3.20;99.90;;;;;;5020819;28;20203;-77
2022/04/20 03:16:50;;;;;;;4.87;2.10;;;3.40;99.90;;;;;;5004473;28;20176;-76
2022/04/20 03:19:15;;;;;;;2.40;1.80;;;3.50;99.90;;;;;;5004656;28;20193;-76
2022/04/20 03:21:41;;;;;;;3.20;2.10;;;3.50;99.90;;;;;;5020925;28;20216;-76
2022/04/20 03:24:07;;;;;;;2.03;1.83;;;3.50;99.90;;;;;;5020786;28;20605;-76
2022/04/20 03:26:32;;;;;;;2.87;2.23;;;3.40;99.90;;;;;;5004555;28;20173;-77
2022/04/20 03:28:58;;;;;;;2.20;2.00;;;3.30;99.90;;;;;;5036911;28;20204;-76
2022/04/20 03:31:23;;;;;;;2.30;2.07;;;3.30;99.90;;;;;;5004388;28;20178;-76
2022/04/20 03:33:49;;;;;;;3.17;2.07;;;3.30;99.90;;;;;;5020615;28;20552;-76
2022/04/20 03:36:15;;;;;;;3.30;1.97;;;3.40;99.90;;;;;;5020342;28;20225;-76
2022/04/20 03:38:40;;;;;;;2.20;1.97;;;3.30;99.90;;;;;;5054614;28;20192;-76
2022/04/20 03:41:06;;;;;;;2.23;2.00;;;3.20;99.90;;;;;;5054539;28;20177;-76
2022/04/20 03:43:32;;;;;;;3.03;2.20;;;3.10;99.90;;;;;;5003762;28;20216;-76
2022/04/20 03:45:58;;;;;;;3.37;2.20;;;2.70;99.90;;;;;;5020236;28;20249;-76
2022/04/20 03:48:23;;;;;;;2.80;2.10;;;2.60;99.90;;;;;;5036476;28;20286;-76
2022/04/20 03:50:50;;;;;;;2.20;2.00;;;2.80;99.90;;;;;;5054282;28;20173;-76
2022/04/20 03:53:16;;;;;;;3.10;2.47;;;2.80;99.90;;;;;;5036603;28;20179;-76
2022/04/20 03:55:43;;;;;;;3.03;2.20;;;2.80;99.90;;;;;;5036509;28;20230;-76
2022/04/20 03:58:08;;;;;;;2.83;2.33;;;2.60;99.90;;;;;;5019369;28;20212;-76
2022/04/20 04:00:34;;;;;;;2.27;2.03;;;2.60;99.90;;;;;;5036488;28;20181;-76
2022/04/20 04:02:59;;;;;;;3.90;2.23;;;2.50;99.90;;;;;;5019609;28;20240;-77
2022/04/20 04:05:25;;;;;;;3.13;2.00;;;2.60;99.90;;;;;;5003527;28;20172;-76
2022/04/20 04:07:51;;;;;;;2.40;2.20;;;2.60;99.90;;;;;;5003341;28;20173;-76
2022/04/20 04:10:18;;;;;;;2.20;2.00;;;2.60;99.90;;;;;;5036430;28;20175;-76
2022/04/20 04:12:44;;;;;;;2.80;2.10;;;2.70;99.90;;;;;;5019994;28;20183;-76
2022/04/20 04:15:10;;;;;;;2.37;2.00;;;2.70;99.90;;;;;;5019941;28;20234;-76
2022/04/20 04:17:35;;;;;;;2.30;2.00;;;2.70;99.90;;;;;;5036314;28;20262;-76
2022/04/20 04:20:01;;;;;;;2.20;2.00;;;2.80;99.90;;;;;;5019561;28;20711;-76
2022/04/20 04:22:27;;;;;;;2.23;1.97;;;2.90;99.90;;;;;;5002941;28;20208;-76
2022/04/20 04:24:53;;;;;;;2.40;2.20;;;3.00;99.90;;;;;;5019762;28;20179;-76
2022/04/20 04:27:21;;;;;;;3.27;2.47;;;2.90;99.90;;;;;;5019510;28;20207;-76
2022/04/20 04:29:46;;;;;;;2.20;2.00;;;2.80;99.90;;;;;;5003385;28;20204;-76
2022/04/20 04:32:14;;;;;;;3.20;2.47;;;2.70;99.90;;;;;;5019283;28;20176;-76
2022/04/20 04:34:40;;;;;;;2.20;2.00;;;2.70;99.90;;;;;;5003924;28;20199;-76
2022/04/20 04:37:09;;;;;;;4.53;2.13;;;2.70;99.90;;;;;;5035834;28;20220;-77
2022/04/20 04:39:34;;;;;;;2.97;2.20;;;2.70;99.90;;;;;;5036004;28;20208;-76
2022/04/20 04:42:03;;;;;;;2.80;2.23;;;2.50;99.90;;;;;;5019119;28;20611;-76
2022/04/20 04:44:29;;;;;;;2.87;2.03;;;2.60;99.90;;;;;;5003457;28;20205;-76
2022/04/20 04:49:39;;;;;;;2.10;1.90;;;2.60;99.90;;;;;;5024532;28;20571;-76
2022/04/20 04:52:11;;;;;;;3.00;2.20;;;2.60;99.90;;;;;;5035332;28;20182;-76
2022/04/20 04:54:38;;;;;;;4.43;2.10;;;2.60;99.90;;;;;;5020112;28;20721;-75
2022/04/20 04:57:05;;;;;;;4.97;2.50;;;2.70;99.90;;;;;;5019134;28;20177;-76
2022/04/20 04:59:31;;;;;;;3.50;2.40;;;2.60;99.90;;;;;;5035595;28;20219;-76
2022/04/20 05:01:57;;;;;;;3.63;2.20;;;2.70;99.90;;;;;;5002506;28;20183;-76
2022/04/20 05:04:22;;;;;;;2.77;2.20;;;2.60;99.90;;;;;;5018736;28;20183;-76
2022/04/20 05:06:48;;;;;;;2.90;2.37;;;2.60;99.90;;;;;;5019009;28;20203;-76
2022/04/20 05:09:13;;;;;;;2.40;2.00;;;2.60;99.90;;;;;;5002240;28;20194;-76
2022/04/20 05:11:39;;;;;;;2.67;1.87;;;2.60;99.90;;;;;;5002469;28;20271;-76
2022/04/20 05:14:04;;;;;;;2.37;2.00;;;2.50;99.90;;;;;;5018519;28;20178;-76
2022/04/20 05:16:30;;;;;;;2.90;2.10;;;2.60;99.90;;;;;;5018978;28;20274;-76
2022/04/20 05:18:56;;;;;;;2.60;2.20;;;2.60;99.90;;;;;;5002273;28;20201;-76
2022/04/20 05:21:23;;;;;;;4.63;2.40;;;2.80;99.90;;;;;;5002474;28;20201;-76
2022/04/20 05:23:48;;;;;;;2.77;2.20;;;2.90;99.90;;;;;;5002250;28;20206;-76
2022/04/20 05:26:14;;;;;;;3.07;2.43;;;3.00;99.90;;;;;;5018925;28;20182;-76
2022/04/20 05:28:39;;;;;;;3.57;2.30;;;3.10;99.90;;;;;;5018297;28;20244;-76
2022/04/20 05:31:05;;;;;;;4.03;2.50;;;3.30;99.90;;;;;;5018700;28;20172;-76
2022/04/20 05:33:30;;;;;;;3.90;2.73;;;3.40;99.90;;;;;;5002211;28;20641;-76
2022/04/20 05:35:56;;;;;;;3.93;2.77;;;3.50;99.90;;;;;;5002236;28;20244;-76
2022/04/20 05:43:50;;;;;;;5.03;3.10;;;3.60;99.90;;;;;;5023369;28;20202;-76
2022/04/20 05:46:16;;;;;;;3.83;2.70;;;3.60;99.90;;;;;;5002214;28;20181;-76
2022/04/20 05:48:42;;;;;;;3.77;2.83;;;3.40;99.90;;;;;;5018382;28;20266;-76
2022/04/20 05:51:08;;;;;;;4.07;2.20;;;3.50;99.90;;;;;;5018138;28;20651;-76
2022/04/20 05:53:34;;;;;;;3.67;2.40;;;3.70;99.90;;;;;;5034323;28;20185;-75
2022/04/20 05:55:59;;;;;;;3.27;2.50;;;4.80;99.90;;;;;;5002024;28;20218;-75
2022/04/20 05:58:25;;;;;;;3.57;2.57;;;5.70;99.90;;;;;;5034709;28;20213;-74
2022/04/20 06:00:50;;;;;;;3.70;2.60;;;6.30;99.90;;;;;;5018078;28;20272;-74
2022/04/20 06:03:16;;;;;;;2.50;2.30;;;6.70;99.90;;;;;;5001806;28;20233;-74
2022/04/20 06:05:41;;;;;;;2.97;2.60;;;7.00;99.90;;;;;;5002073;28;20181;-75
2022/04/20 06:08:08;;;;;;;5.00;2.77;;;7.00;99.90;;;;;;5017996;28;20197;-76
2022/04/20 06:10:34;;;;;;;4.27;2.80;;;6.30;99.90;;;;;;5034674;28;20173;-76
2022/04/20 06:13:00;;;;;;;5.47;3.30;;;5.50;99.90;;;;;;5034437;28;20705;-76
2022/04/20 06:15:25;;;;;;;3.17;2.80;;;5.00;99.90;;;;;;5034592;28;20178;-75
2022/04/20 06:17:51;;;;;;;3.90;2.70;;;4.70;99.90;;;;;;5034352;28;20193;-76
2022/04/20 06:20:17;;;;;;;2.80;2.60;;;4.50;99.90;;;;;;5001574;28;20552;-76
2022/04/20 06:22:43;;;;;;;3.43;3.03;;;4.50;99.90;;;;;;5020666;28;20213;-76
2022/04/20 06:25:08;;;;;;;3.10;2.70;;;4.50;99.90;;;;;;5021674;28;20648;-76
2022/04/20 06:27:34;;;;;;;4.93;2.90;;;4.60;99.90;;;;;;5038340;28;20551;-76
2022/04/20 06:30:00;;;;;;;3.33;2.87;;;4.70;99.90;;;;;;5021595;28;20197;-76
2022/04/20 06:32:27;;;;;;;4.43;3.20;;;4.70;99.90;;;;;;5021430;28;20228;-76
2022/04/20 06:34:54;;;;;;;3.83;3.30;;;4.70;99.90;;;;;;5037941;28;20176;-76
2022/04/20 06:37:20;;;;;;;3.83;2.90;;;4.90;99.90;;;;;;5055892;28;20212;-76
2022/04/20 06:39:46;;;;;;;5.57;2.97;;;5.00;99.90;;;;;;5021594;28;20275;-76
2022/04/20 06:42:12;;;;;;;4.10;2.73;;;5.10;99.90;;;;;;5021321;28;20574;-76
2022/04/20 06:44:38;;;;;;;6.27;3.40;;;5.20;99.90;;;;;;5037688;28;20166;-76
2022/04/20 06:47:04;;;;;;;3.57;2.90;;;5.40;99.90;;;;;;5037909;28;20718;-76
2022/04/20 06:49:30;;;;;;;4.30;3.13;;;5.50;99.90;;;;;;5020963;28;20235;-76
2022/04/20 07:00:09;;;;;;;5.57;2.97;;;5.80;99.90;;;;;;5075363;23;20326;-76
2022/04/20 07:02:35;;;;;;;3.43;2.87;;;5.90;99.90;;;;;;5074590;28;20205;-77
2022/04/20 07:05:01;;;;;;;5.50;3.20;;;6.00;99.90;;;;;;5040378;28;20584;-76
2022/04/20 07:07:27;;;;;;;3.63;3.13;;;6.00;99.90;;;;;;5040358;28;20188;-76
2022/04/20 07:09:53;;;;;;;3.23;2.80;;;6.20;99.90;;;;;;5037129;28;20609;-76
2022/04/20 07:12:18;;;;;;;4.73;2.83;;;6.30;99.90;;;;;;5036644;28;20174;-77
2022/04/20 07:14:44;;;;;;;3.20;2.90;;;6.40;99.90;;;;;;5036766;28;20238;-76
2022/04/20 07:17:10;;;;;;;5.63;3.03;;;6.60;99.90;;;;;;5054626;28;20178;-76
2022/04/20 07:19:35;;;;;;;4.43;3.30;;;6.70;99.90;;;;;;5036547;28;20200;-75
2022/04/20 07:22:01;;;;;;;3.83;3.00;;;6.90;99.90;;;;;;5036549;28;20181;-76
2022/04/20 07:24:27;;;;;;;4.97;2.80;;;7.10;99.90;;;;;;5053231;28;20220;-76
2022/04/20 07:26:53;;;;;;;3.00;2.53;;;7.20;99.90;;;;;;5036566;28;20173;-76
2022/04/20 07:29:18;;;;;;;3.63;2.67;;;7.40;99.90;;;;;;5036718;28;20220;-76
2022/04/20 07:31:45;;;;;;;4.37;3.10;;;7.50;99.90;;;;;;5036569;28;20180;-75
2022/04/20 07:34:12;;;;;;;3.90;2.93;;;7.80;99.90;;;;;;5035236;28;20179;-76
2022/04/20 07:36:37;;;;;;;3.10;2.80;;;7.90;99.90;;;;;;5036356;28;20201;-76
2022/04/20 07:39:03;;;;;;;5.03;2.50;;;8.10;99.90;;;;;;5036362;28;20660;-76
2022/04/20 07:41:29;;;;;;;4.00;2.90;;;8.20;99.90;;;;;;5036401;28;20623;-76
2022/04/20 07:43:54;;;;;;;3.67;2.47;;;8.40;99.90;;;;;;5036127;28;20257;-76
2022/04/20 07:46:20;;;;;;;4.60;3.10;;;8.50;99.90;;;;;;5053000;28;20174;-76
2022/04/20 07:48:46;;;;;;;4.00;2.87;;;8.80;99.90;;;;;;5036127;28;20561;-75
2022/04/20 07:51:13;;;;;;;3.33;2.53;;;9.00;99.90;;;;;;5035954;28;20644;-76
2022/04/20 07:53:38;;;;;;;2.90;2.37;;;9.10;99.90;;;;;;5036006;28;20200;-76
2022/04/20 07:56:04;;;;;;;2.60;2.20;;;9.40;99.90;;;;;;5036176;28;20211;-76
2022/04/20 07:58:30;;;;;;;2.93;2.20;;;9.70;99.90;;;;;;5035839;28;20212;-76
2022/04/20 08:00:57;;;;;;;3.20;2.80;;;10.00;99.90;;;;;;5036154;28;20185;-76
2022/04/20 08:03:23;;;;;;;2.37;2.17;;;10.20;99.90;;;;;;5035438;28;20201;-75
2022/04/20 08:05:55;;;;;;;2.50;2.30;;;10.40;99.90;;;;;;5052650;28;20174;-76
2022/04/20 08:08:23;;;;;;;3.17;2.50;;;10.60;99.90;;;;;;5035978;28;20186;-76
2022/04/20 08:10:48;;;;;;;3.43;2.40;;;10.70;99.90;;;;;;5035929;28;20179;-76
2022/04/20 08:15:59;;;;;;;3.40;2.17;;;10.90;99.90;;;;;;5052779;28;20656;-76
2022/04/20 08:18:26;;;;;;;2.87;2.20;;;11.00;99.80;;;;;;5035346;28;20200;-76
2022/04/20 08:20:52;;;;;;;4.13;2.77;;;11.20;99.90;;;;;;5035707;28;20539;-76
2022/04/20 08:23:18;;;;;;;4.03;2.60;;;11.30;99.90;;;;;;5035399;28;20299;-76
2022/04/20 08:25:45;;;;;;;4.90;2.50;;;11.40;99.90;;;;;;5035429;28;20176;-76
2022/04/20 08:28:12;;;;;;;3.10;2.60;;;11.40;99.90;;;;;;5053209;28;20166;-76
2022/04/20 08:30:39;;;;;;;4.47;2.33;;;11.60;99.50;;;;;;5035382;28;20190;-76
2022/04/20 08:33:08;;;;;;;4.03;2.60;;;11.50;98.80;;;;;;5052960;28;20173;-76
2022/04/20 08:35:35;;;;;;;4.93;2.33;;;11.60;98.40;;;;;;5035182;28;20722;-76
2022/04/20 08:38:01;;;;;;;4.93;2.43;;;11.70;99.30;;;;;;5053078;28;20248;-77
2022/04/20 08:40:28;;;;;;;2.37;2.17;;;11.90;99.20;;;;;;5035264;28;20177;-77
2022/04/20 08:42:54;;;;;;;2.37;2.17;;;11.90;97.20;;;;;;5034860;28;20579;-76
2022/04/20 08:45:20;;;;;;;3.80;2.30;;;11.90;98.50;;;;;;5034005;28;20179;-77
2022/04/20 08:47:49;;;;;;;2.80;2.27;;;12.00;97.10;;;;;;5035254;28;20216;-76
2022/04/20 08:50:16;;;;;;;3.13;2.40;;;12.10;96.70;;;;;;5034967;28;20197;-76
2022/04/20 08:52:46;;;;;;;2.67;2.30;;;12.20;97.70;;;;;;5034933;28;20170;-77
2022/04/20 08:55:18;;;;;;;2.83;2.07;;;12.50;99.00;;;;;;5051962;28;20223;-77
2022/04/20 08:57:46;;;;;;;2.60;2.40;;;12.70;97.40;;;;;;5034753;28;20306;-77
2022/04/20 09:00:19;;;;;;;3.13;2.20;;;12.90;96.80;;;;;;5034805;28;20266;-77
2022/04/20 09:02:46;;;;;;;3.77;2.50;;;13.00;97.00;;;;;;5034651;28;20702;-77
2022/04/20 09:05:12;;;;;;;2.50;2.30;;;13.00;96.50;;;;;;5035045;28;20201;-77
2022/04/20 09:07:38;;;;;;;2.60;2.40;;;13.00;95.70;;;;;;5034594;28;20628;-77
2022/04/20 09:10:04;;;;;;;3.43;2.40;;;13.00;95.50;;;;;;5034801;28;20196;-77
2022/04/20 09:12:30;;;;;;;3.50;2.57;;;13.20;96.90;;;;;;5034262;28;20228;-77
2022/04/20 09:14:56;;;;;;;2.97;2.47;;;13.40;95.30;;;;;;5052503;28;20589;-77
2022/04/20 09:17:24;;;;;;;2.77;2.57;;;13.40;95.80;;;;;;5034595;28;20173;-77
2022/04/20 09:19:51;;;;;;;3.47;2.40;;;13.40;95.90;;;;;;5034437;28;20284;-77
2022/04/20 09:22:32;;;;;;;3.03;2.50;;;13.50;95.10;;;;;;5034228;28;20188;-77
2022/04/20 09:25:05;;;;;;;5.47;2.37;;;13.80;94.90;;;;;;5052308;28;20176;-77
2022/04/20 09:27:31;;;;;;;3.73;2.37;;;13.80;94.90;;;;;;5034467;28;20177;-77
2022/04/20 09:29:58;;;;;;;3.97;2.50;;;14.00;93.50;;;;;;5052179;28;20185;-77
2022/04/20 09:32:38;;;;;;;2.67;2.30;;;14.00;93.30;;;;;;5034172;28;20227;-78
2022/04/20 09:35:09;;;;;;;4.53;2.10;;;14.20;94.00;;;;;;5052283;28;20224;-78
2022/04/20 09:37:36;;;;;;;3.13;2.30;;;13.90;93.40;;;;;;5051074;28;20522;-77
2022/04/20 09:40:05;;;;;;;2.80;2.40;;;14.00;93.90;;;;;;5051068;28;20189;-77
2022/04/20 09:42:34;;;;;;;2.40;2.20;;;14.00;93.00;;;;;;5034525;28;20197;-77
2022/04/20 09:45:02;;;;;;;2.70;2.40;;;14.00;93.60;;;;;;5034279;28;20170;-77
2022/04/20 09:50:22;;;;;;;2.47;2.27;;;14.20;93.10;;;;;;5051199;28;20201;-77
2022/04/20 09:52:50;;;;;;;4.33;2.70;;;14.30;93.90;;;;;;5034383;28;20269;-76
2022/04/20 09:55:27;;;;;;;4.60;2.70;;;14.40;94.30;;;;;;5051983;28;20169;-77
2022/04/20 09:58:08;;;;;;;3.80;2.80;;;14.30;92.30;;;;;;5055026;28;20177;-76
2022/04/20 10:00:41;;;;;;;3.53;2.70;;;14.30;93.20;;;;;;5038090;28;20686;-78
2022/04/20 10:03:07;;;;;;;3.57;2.63;;;14.40;93.60;;;;;;5038711;28;20220;-78
2022/04/20 10:05:32;;;;;;;3.27;2.57;;;14.60;92.40;;;;;;5039061;28;20185;-79
2022/04/20 10:07:59;;;;;;;3.03;2.57;;;14.90;92.80;;;;;;5039123;28;20178;-77
2022/04/20 10:10:27;;;;;;;3.63;2.50;;;15.10;92.90;;;;;;5055233;28;20166;-78
2022/04/20 10:12:54;;;;;;;2.73;2.40;;;15.40;92.10;;;;;;5037744;28;20173;-78
2022/04/20 10:18:14;;;;;;;2.30;2.10;;;15.70;90.00;;;;;;5054951;28;20593;-77
2022/04/20 10:20:45;;;;;;;4.37;2.33;;;15.60;90.50;;;;;;5037852;28;20186;-77
2022/04/20 10:23:13;;;;;;;2.47;2.27;;;15.30;85.80;;;;;;5037591;28;20203;-78
2022/04/20 10:25:40;;;;;;;3.07;2.00;;;15.50;88.00;;;;;;5054397;28;20659;-77
2022/04/20 10:28:44;;;;;;;4.37;2.40;;;15.80;87.20;;;;;;5037945;28;20174;-78
2022/04/20 10:31:35;;;;;;;3.43;2.50;;;15.70;84.00;;;;;;5037577;28;20176;-78
2022/04/20 10:34:02;;;;;;;2.37;2.17;;;16.00;83.80;;;;;;5026938;28;20196;-78
2022/04/20 10:36:32;;;;;;;2.87;1.90;;;16.40;86.20;;;;;;5037516;28;20205;-78
2022/04/20 10:39:23;;;;;;;3.37;2.13;;;16.50;86.90;;;;;;5037556;28;20236;-78
2022/04/20 10:42:11;;;;;;;3.33;2.23;;;16.70;84.90;;;;;;5054122;28;20212;-78
2022/04/20 10:44:50;;;;;;;3.47;2.33;;;16.90;82.50;;;;;;5037702;28;20548;-78
2022/04/20 10:47:22;;;;;;;3.70;2.70;;;16.80;82.50;;;;;;5037544;28;20170;-77
2022/04/20 10:49:50;;;;;;;2.87;2.47;;;17.00;81.70;;;;;;5037032;28;20213;-77
2022/04/20 10:52:39;;;;;;;3.40;2.50;;;16.70;79.80;;;;;;5036967;28;20312;-78
2022/04/20 10:55:06;;;;;;;2.80;2.50;;;16.70;84.80;;;;;;5037268;28;20169;-78
2022/04/20 10:57:42;;;;;;;4.20;2.43;;;16.90;78.70;;;;;;5037093;28;20205;-78
2022/04/20 11:00:20;;;;;;;3.50;2.57;;;17.10;78.50;;;;;;5053614;28;20258;-78
2022/04/20 11:02:50;;;;;;;3.77;2.27;;;17.10;83.50;;;;;;5035488;28;20198;-78
2022/04/20 11:05:22;;;;;;;3.73;2.37;;;17.00;78.60;;;;;;5054954;28;20166;-78
2022/04/20 11:08:14;;;;;;;2.33;2.13;;;17.40;79.80;;;;;;5053775;28;20174;-76
2022/04/20 11:19:52;;;;;;;7.00;3.13;;;17.90;79.50;;;;;;5054794;28;20200;-76
2022/04/20 11:22:18;;;;;;;3.47;2.30;;;18.20;83.50;;;;;;5036405;28;20655;-76
2022/04/20 11:24:44;;;;;;;3.73;2.37;;;18.70;86.40;;;;;;5036677;28;20241;-76
2022/04/20 11:27:11;;;;;;;2.37;2.07;;;19.10;74.50;;;;;;5054501;28;20235;-76
2022/04/20 11:29:37;;;;;;;3.27;2.57;;;18.50;73.70;;;;;;5036422;28;20204;-77
2022/04/20 11:32:05;;;;;;;3.70;2.23;;;18.50;86.80;;;;;;5054106;28;20178;-76
2022/04/20 11:34:33;;;;;;;3.30;2.40;;;18.50;73.30;;;;;;5036703;28;20169;-76
2022/04/20 11:37:02;;;;;;;2.60;2.40;;;18.70;81.60;;;;;;5036463;28;20173;-76
2022/04/20 11:39:30;;;;;;;2.70;2.10;;;19.20;79.10;;;;;;5036314;28;20273;-76
2022/04/20 11:42:01;;;;;;;2.97;2.00;;;18.80;72.50;;;;;;5036319;28;20228;-76
2022/04/20 11:44:27;;;;;;;2.70;2.10;;;18.70;75.20;;;;;;5036150;28;20263;-76
2022/04/20 11:46:58;;;;;;;2.87;2.03;;;18.90;71.50;;;;;;5036252;28;20169;-76
2022/04/20 11:49:41;;;;;;;2.67;2.00;;;18.80;72.30;;;;;;5036204;28;20288;-76
2022/04/20 11:52:11;;;;;;;3.10;2.30;;;18.40;69.20;;;;;;5053271;28;20154;-78
2022/04/20 11:54:38;;;;;;;2.63;2.10;;;18.40;68.80;;;;;;5053044;28;20181;-77
2022/04/20 11:57:05;;;;;;;2.77;2.07;;;18.80;72.80;;;;;;5036355;28;20181;-77
2022/04/20 11:59:31;;;;;;;3.57;2.30;;;18.80;69.30;;;;;;5036284;28;20213;-78
2022/04/20 12:01:57;;;;;;;2.30;2.10;;;19.10;68.60;;;;;;5036302;28;20188;-78
2022/04/20 12:04:28;;;;;;;3.17;2.27;;;19.20;66.60;;;;;;5052983;28;20668;-77
2022/04/20 12:06:57;;;;;;;3.47;2.10;;;19.00;67.60;;;;;;5036219;28;20205;-76
2022/04/20 12:09:24;;;;;;;2.73;1.80;;;19.10;67.20;;;;;;5036122;28;20285;-77
2022/04/20 12:12:01;;;;;;;2.50;2.10;;;19.20;66.90;;;;;;5052684;28;20249;-78
2022/04/20 12:14:30;;;;;;;4.60;2.30;;;17.80;64.80;;;;;;5052353;28;20189;-77
2022/04/20 12:17:00;;;;;;;2.17;1.97;;;17.50;68.00;;;;;;5035332;28;20227;-78
2022/04/20 12:19:27;;;;;;;3.67;2.20;;;18.20;72.60;;;;;;5033405;28;20193;-78
2022/04/20 12:21:53;;;;;;;2.30;2.10;;;18.70;70.50;;;;;;5035285;28;20175;-78
2022/04/20 12:24:21;;;;;;;2.10;1.90;;;18.90;68.40;;;;;;5035373;28;20260;-78
2022/04/20 12:26:49;;;;;;;2.63;2.00;;;18.80;66.60;;;;;;5035646;28;20185;-78
2022/04/20 12:29:18;;;;;;;2.60;2.00;;;19.40;67.90;;;;;;5035378;28;20252;-78
2022/04/20 12:31:45;;;;;;;2.53;1.97;;;19.60;67.00;;;;;;5035418;28;20242;-77
2022/04/20 12:34:15;;;;;;;2.20;1.80;;;19.90;66.90;;;;;;5035308;28;20247;-78
2022/04/20 12:37:14;;;;;;;2.43;1.80;;;20.20;63.20;;;;;;5052087;28;20169;-78
2022/04/20 12:39:45;;;;;;;2.67;1.90;;;20.10;59.80;;;;;;5035484;28;20280;-78
2022/04/20 12:42:17;;;;;;;2.57;2.20;;;20.20;61.30;;;;;;5034992;28;20659;-78
2022/04/20 12:44:52;;;;;;;3.07;2.00;;;20.20;60.70;;;;;;5034998;28;20188;-78
2022/04/20 12:47:18;;;;;;;3.13;2.30;;;20.00;62.00;;;;;;5052937;28;20173;-78
2022/04/20 12:50:00;;;;;;;5.30;2.00;;;20.40;62.90;;;;;;5034964;28;20194;-78
2022/04/20 12:52:31;;;;;;;3.17;2.20;;;20.30;63.90;;;;;;5034831;28;20174;-77
2022/04/20 12:54:58;;;;;;;2.57;2.20;;;20.10;59.30;;;;;;5051756;28;20174;-78
2022/04/20 13:03:13;;;;;;;3.17;2.10;;;19.70;63.70;;;;;;5051604;28;20264;-77
2022/04/20 13:05:42;;;;;;;2.47;1.83;;;19.60;61.80;;;;;;5034745;28;20607;-77
2022/04/20 13:08:09;;;;;;;2.30;1.90;;;19.30;62.90;;;;;;5051388;28;20190;-77
2022/04/20 13:10:42;;;;;;;3.83;2.20;;;19.40;66.30;;;;;;5034831;28;20176;-77
2022/04/20 13:13:08;;;;;;;2.57;1.90;;;19.80;66.10;;;;;;5034578;28;20177;-77
2022/04/20 13:15:34;;;;;;;3.30;2.07;;;19.70;63.30;;;;;;5034615;28;20189;-77
2022/04/20 13:18:01;;;;;;;3.93;2.47;;;19.80;65.10;;;;;;5051276;28;20177;-77
2022/04/20 13:20:28;;;;;;;2.10;1.90;;;20.30;64.30;;;;;;5034792;28;20706;-77
2022/04/20 13:22:58;;;;;;;3.10;2.60;;;19.90;59.90;;;;;;5034492;28;20297;-77
2022/04/20 13:28:08;;;;;;;1.90;1.80;;;18.70;63.80;;;;;;5051456;28;20231;-77
2022/04/20 13:30:39;;;;;;;2.10;1.90;;;19.00;65.50;;;;;;5034338;28;20174;-77
2022/04/20 13:33:11;;;;;;;2.27;2.00;;;19.50;64.20;;;;;;5034215;28;20173;-77
2022/04/20 13:35:41;;;;;;;2.73;2.07;;;19.30;62.90;;;;;;5052348;28;20177;-78
2022/04/20 13:38:08;;;;;;;2.80;2.00;;;19.30;63.10;;;;;;5034089;28;20178;-77
2022/04/20 13:40:36;;;;;;;2.20;1.97;;;19.70;66.50;;;;;;5034197;28;20189;-77